sensor_id;sensor_type;location;lat;lon;timestamp;P1;durP1;ratioP1;P2;durP2;ratioP2
14907;SDS011;7545;52.092;7.006;2023-04-25T00:01:00;5.93;;;2.03;;
14907;SDS011;7545;52.092;7.006;2023-04-25T00:03:27;6.03;;;2.97;;
14907;SDS011;7545;52.092;7.006;2023-04-25T00:05:54;5.43;;;2.00;;
14907;SDS011;7545;52.092;7.006;2023-04-25T00:08:21;3.00;;;1.90;;
14907;SDS011;7545;52.092;7.006;2023-04-25T00:10:47;5.37;;;1.70;;
14907;SDS011;7545;52.092;7.006;2023-04-25T00:13:14;2.10;;;1.53;;
14907;SDS011;7545;52.092;7.006;2023-04-25T00:15:42;2.03;;;1.57;;
14907;SDS011;7545;52.092;7.006;2023-04-25T00:18:08;2.70;;;1.70;;
14907;SDS011;7545;52.092;7.006;2023-04-25T00:20:34;8.40;;;2.77;;
14907;SDS011;7545;52.092;7.006;2023-04-25T00:23:00;3.90;;;1.30;;
14907;SDS011;7545;52.092;7.006;2023-04-25T00:25:26;3.93;;;1.50;;
14907;SDS011;7545;52.092;7.006;2023-04-25T00:27:51;7.07;;;1.97;;
14907;SDS011;7545;52.092;7.006;2023-04-25T00:30:17;7.47;;;2.87;;
14907;SDS011;7545;52.092;7.006;2023-04-25T00:32:43;6.17;;;2.47;;
14907;SDS011;7545;52.092;7.006;2023-04-25T00:35:09;4.80;;;2.20;;
14907;SDS011;7545;52.092;7.006;2023-04-25T00:37:35;7.73;;;2.37;;
14907;SDS011;7545;52.092;7.006;2023-04-25T00:40:00;9.93;;;2.53;;
14907;SDS011;7545;52.092;7.006;2023-04-25T00:42:26;13.97;;;3.17;;
14907;SDS011;7545;52.092;7.006;2023-04-25T00:44:52;14.10;;;3.43;;
14907;SDS011;7545;52.092;7.006;2023-04-25T00:47:18;4.77;;;1.93;;
14907;SDS011;7545;52.092;7.006;2023-04-25T00:49:44;11.77;;;3.07;;
14907;SDS011;7545;52.092;7.006;2023-04-25T00:52:10;11.73;;;3.10;;
14907;SDS011;7545;52.092;7.006;2023-04-25T00:54:36;9.77;;;2.83;;
14907;SDS011;7545;52.092;7.006;2023-04-25T00:57:02;9.10;;;3.87;;
14907;SDS011;7545;52.092;7.006;2023-04-25T00:59:28;11.57;;;2.40;;
14907;SDS011;7545;52.092;7.006;2023-04-25T01:01:55;15.37;;;3.10;;
14907;SDS011;7545;52.092;7.006;2023-04-25T01:04:21;11.80;;;2.80;;
14907;SDS011;7545;52.092;7.006;2023-04-25T01:06:47;11.83;;;4.17;;
14907;SDS011;7545;52.092;7.006;2023-04-25T01:09:13;7.03;;;2.30;;
14907;SDS011;7545;52.092;7.006;2023-04-25T01:11:39;8.00;;;2.37;;
14907;SDS011;7545;52.092;7.006;2023-04-25T01:14:05;9.83;;;2.37;;
14907;SDS011;7545;52.092;7.006;2023-04-25T01:16:31;7.33;;;2.97;;
14907;SDS011;7545;52.092;7.006;2023-04-25T01:18:58;10.63;;;2.90;;
14907;SDS011;7545;52.092;7.006;2023-04-25T01:21:24;8.43;;;3.57;;
14907;SDS011;7545;52.092;7.006;2023-04-25T01:23:52;8.67;;;2.90;;
14907;SDS011;7545;52.092;7.006;2023-04-25T01:26:24;7.57;;;2.30;;
14907;SDS011;7545;52.092;7.006;2023-04-25T01:28:54;18.53;;;3.77;;
14907;SDS011;7545;52.092;7.006;2023-04-25T01:31:19;13.77;;;3.43;;
14907;SDS011;7545;52.092;7.006;2023-04-25T01:33:45;16.20;;;3.30;;
14907;SDS011;7545;52.092;7.006;2023-04-25T01:36:12;13.37;;;2.70;;
14907;SDS011;7545;52.092;7.006;2023-04-25T01:38:39;9.80;;;3.13;;
14907;SDS011;7545;52.092;7.006;2023-04-25T01:41:05;8.50;;;3.10;;
14907;SDS011;7545;52.092;7.006;2023-04-25T01:43:31;14.53;;;3.10;;
14907;SDS011;7545;52.092;7.006;2023-04-25T01:45:56;9.43;;;2.73;;
14907;SDS011;7545;52.092;7.006;2023-04-25T01:48:22;7.20;;;2.57;;
14907;SDS011;7545;52.092;7.006;2023-04-25T01:50:48;11.67;;;3.50;;
14907;SDS011;7545;52.092;7.006;2023-04-25T01:53:13;12.27;;;2.97;;
14907;SDS011;7545;52.092;7.006;2023-04-25T01:55:39;10.13;;;2.73;;
14907;SDS011;7545;52.092;7.006;2023-04-25T01:58:05;14.80;;;2.97;;
14907;SDS011;7545;52.092;7.006;2023-04-25T02:00:35;9.63;;;3.60;;
14907;SDS011;7545;52.092;7.006;2023-04-25T02:03:03;13.40;;;3.40;;
14907;SDS011;7545;52.092;7.006;2023-04-25T02:05:33;7.47;;;4.10;;
14907;SDS011;7545;52.092;7.006;2023-04-25T02:08:04;13.50;;;4.20;;
14907;SDS011;7545;52.092;7.006;2023-04-25T02:10:30;12.77;;;3.57;;
14907;SDS011;7545;52.092;7.006;2023-04-25T02:12:56;18.73;;;4.03;;
14907;SDS011;7545;52.092;7.006;2023-04-25T02:15:22;11.57;;;3.77;;
14907;SDS011;7545;52.092;7.006;2023-04-25T02:17:48;8.50;;;3.67;;
14907;SDS011;7545;52.092;7.006;2023-04-25T02:20:14;13.03;;;4.37;;
14907;SDS011;7545;52.092;7.006;2023-04-25T02:22:41;9.23;;;3.20;;
14907;SDS011;7545;52.092;7.006;2023-04-25T02:25:08;9.30;;;2.70;;
14907;SDS011;7545;52.092;7.006;2023-04-25T02:27:35;5.43;;;2.30;;
14907;SDS011;7545;52.092;7.006;2023-04-25T02:30:00;11.57;;;4.10;;
14907;SDS011;7545;52.092;7.006;2023-04-25T02:32:26;10.90;;;2.83;;
14907;SDS011;7545;52.092;7.006;2023-04-25T02:34:52;11.17;;;2.70;;
14907;SDS011;7545;52.092;7.006;2023-04-25T02:37:18;12.40;;;3.20;;
14907;SDS011;7545;52.092;7.006;2023-04-25T02:39:44;12.93;;;2.40;;
14907;SDS011;7545;52.092;7.006;2023-04-25T02:42:09;7.30;;;3.53;;
14907;SDS011;7545;52.092;7.006;2023-04-25T02:44:35;7.70;;;2.50;;
14907;SDS011;7545;52.092;7.006;2023-04-25T02:47:01;13.23;;;3.63;;
14907;SDS011;7545;52.092;7.006;2023-04-25T02:49:26;7.43;;;2.37;;
14907;SDS011;7545;52.092;7.006;2023-04-25T02:51:52;8.63;;;2.90;;
14907;SDS011;7545;52.092;7.006;2023-04-25T02:54:17;14.17;;;2.97;;
14907;SDS011;7545;52.092;7.006;2023-04-25T02:56:43;7.40;;;2.57;;
14907;SDS011;7545;52.092;7.006;2023-04-25T02:59:09;9.67;;;2.70;;
14907;SDS011;7545;52.092;7.006;2023-04-25T03:01:34;10.30;;;2.53;;
14907;SDS011;7545;52.092;7.006;2023-04-25T03:04:00;8.30;;;3.27;;
14907;SDS011;7545;52.092;7.006;2023-04-25T03:06:25;14.07;;;3.27;;
14907;SDS011;7545;52.092;7.006;2023-04-25T03:08:51;12.40;;;3.00;;
14907;SDS011;7545;52.092;7.006;2023-04-25T03:11:16;11.93;;;2.73;;
14907;SDS011;7545;52.092;7.006;2023-04-25T03:13:42;10.97;;;4.13;;
14907;SDS011;7545;52.092;7.006;2023-04-25T03:16:07;9.77;;;3.40;;
14907;SDS011;7545;52.092;7.006;2023-04-25T03:18:33;10.67;;;2.80;;
14907;SDS011;7545;52.092;7.006;2023-04-25T03:20:59;7.47;;;2.70;;
14907;SDS011;7545;52.092;7.006;2023-04-25T03:23:24;8.90;;;3.27;;
14907;SDS011;7545;52.092;7.006;2023-04-25T03:25:50;7.40;;;2.07;;
14907;SDS011;7545;52.092;7.006;2023-04-25T03:28:16;6.77;;;2.73;;
14907;SDS011;7545;52.092;7.006;2023-04-25T03:30:42;9.30;;;2.57;;
14907;SDS011;7545;52.092;7.006;2023-04-25T03:33:07;8.27;;;2.87;;
14907;SDS011;7545;52.092;7.006;2023-04-25T03:35:33;9.60;;;2.30;;
14907;SDS011;7545;52.092;7.006;2023-04-25T03:37:58;6.47;;;3.37;;
14907;SDS011;7545;52.092;7.006;2023-04-25T03:40:24;11.53;;;3.00;;
14907;SDS011;7545;52.092;7.006;2023-04-25T03:42:50;10.53;;;3.37;;
14907;SDS011;7545;52.092;7.006;2023-04-25T03:45:15;10.27;;;3.20;;
14907;SDS011;7545;52.092;7.006;2023-04-25T03:47:41;7.40;;;2.30;;
14907;SDS011;7545;52.092;7.006;2023-04-25T03:50:07;7.23;;;2.40;;
14907;SDS011;7545;52.092;7.006;2023-04-25T03:52:32;9.77;;;2.47;;
14907;SDS011;7545;52.092;7.006;2023-04-25T03:54:58;5.00;;;2.23;;
14907;SDS011;7545;52.092;7.006;2023-04-25T03:57:24;7.03;;;2.40;;
14907;SDS011;7545;52.092;7.006;2023-04-25T03:59:49;10.43;;;3.03;;
14907;SDS011;7545;52.092;7.006;2023-04-25T04:02:15;8.03;;;2.23;;
14907;SDS011;7545;52.092;7.006;2023-04-25T04:04:42;7.97;;;2.70;;
14907;SDS011;7545;52.092;7.006;2023-04-25T04:07:09;6.97;;;2.30;;
14907;SDS011;7545;52.092;7.006;2023-04-25T04:09:35;7.47;;;2.73;;
14907;SDS011;7545;52.092;7.006;2023-04-25T04:12:00;8.40;;;2.07;;
14907;SDS011;7545;52.092;7.006;2023-04-25T04:14:26;10.27;;;2.60;;
14907;SDS011;7545;52.092;7.006;2023-04-25T04:16:53;11.70;;;2.10;;
14907;SDS011;7545;52.092;7.006;2023-04-25T04:19:18;7.50;;;2.73;;
14907;SDS011;7545;52.092;7.006;2023-04-25T04:21:44;12.40;;;2.40;;
14907;SDS011;7545;52.092;7.006;2023-04-25T04:24:10;11.37;;;2.33;;
14907;SDS011;7545;52.092;7.006;2023-04-25T04:26:35;12.30;;;2.87;;
14907;SDS011;7545;52.092;7.006;2023-04-25T04:29:02;9.17;;;3.27;;
14907;SDS011;7545;52.092;7.006;2023-04-25T04:31:27;8.10;;;2.03;;
14907;SDS011;7545;52.092;7.006;2023-04-25T04:33:55;9.00;;;2.00;;
14907;SDS011;7545;52.092;7.006;2023-04-25T04:36:23;6.63;;;2.60;;
14907;SDS011;7545;52.092;7.006;2023-04-25T04:38:51;7.10;;;2.53;;
14907;SDS011;7545;52.092;7.006;2023-04-25T04:41:17;6.63;;;2.33;;
14907;SDS011;7545;52.092;7.006;2023-04-25T04:43:44;7.53;;;2.47;;
14907;SDS011;7545;52.092;7.006;2023-04-25T04:46:10;8.43;;;2.90;;
14907;SDS011;7545;52.092;7.006;2023-04-25T04:48:37;5.90;;;2.57;;
14907;SDS011;7545;52.092;7.006;2023-04-25T04:51:05;12.57;;;2.40;;
14907;SDS011;7545;52.092;7.006;2023-04-25T04:53:30;8.00;;;2.47;;
14907;SDS011;7545;52.092;7.006;2023-04-25T04:55:56;11.27;;;2.70;;
14907;SDS011;7545;52.092;7.006;2023-04-25T04:58:22;11.70;;;3.00;;
14907;SDS011;7545;52.092;7.006;2023-04-25T05:00:48;8.93;;;2.57;;
14907;SDS011;7545;52.092;7.006;2023-04-25T05:03:13;12.00;;;2.77;;
14907;SDS011;7545;52.092;7.006;2023-04-25T05:05:39;10.33;;;2.93;;
14907;SDS011;7545;52.092;7.006;2023-04-25T05:08:05;8.50;;;3.20;;
14907;SDS011;7545;52.092;7.006;2023-04-25T05:10:31;7.43;;;2.80;;
14907;SDS011;7545;52.092;7.006;2023-04-25T05:12:56;11.00;;;2.80;;
14907;SDS011;7545;52.092;7.006;2023-04-25T05:15:22;8.67;;;3.13;;
14907;SDS011;7545;52.092;7.006;2023-04-25T05:17:48;9.63;;;2.90;;
14907;SDS011;7545;52.092;7.006;2023-04-25T05:20:13;11.27;;;2.57;;
14907;SDS011;7545;52.092;7.006;2023-04-25T05:22:39;9.60;;;2.67;;
14907;SDS011;7545;52.092;7.006;2023-04-25T05:25:06;7.23;;;2.40;;
14907;SDS011;7545;52.092;7.006;2023-04-25T05:27:33;7.60;;;3.30;;
14907;SDS011;7545;52.092;7.006;2023-04-25T05:29:58;9.00;;;2.87;;
14907;SDS011;7545;52.092;7.006;2023-04-25T05:32:24;9.00;;;2.23;;
14907;SDS011;7545;52.092;7.006;2023-04-25T05:34:50;10.10;;;2.70;;
14907;SDS011;7545;52.092;7.006;2023-04-25T05:37:16;7.27;;;2.80;;
14907;SDS011;7545;52.092;7.006;2023-04-25T05:39:42;7.67;;;2.87;;
14907;SDS011;7545;52.092;7.006;2023-04-25T05:42:08;8.13;;;2.87;;
14907;SDS011;7545;52.092;7.006;2023-04-25T05:44:33;9.23;;;3.53;;
14907;SDS011;7545;52.092;7.006;2023-04-25T05:46:59;8.67;;;2.80;;
14907;SDS011;7545;52.092;7.006;2023-04-25T05:49:25;7.93;;;2.50;;
14907;SDS011;7545;52.092;7.006;2023-04-25T05:51:50;5.67;;;2.30;;
14907;SDS011;7545;52.092;7.006;2023-04-25T05:54:16;10.60;;;2.40;;
14907;SDS011;7545;52.092;7.006;2023-04-25T05:56:42;9.67;;;2.30;;
14907;SDS011;7545;52.092;7.006;2023-04-25T05:59:08;9.53;;;2.27;;
14907;SDS011;7545;52.092;7.006;2023-04-25T06:01:33;4.87;;;3.00;;
14907;SDS011;7545;52.092;7.006;2023-04-25T06:03:59;6.47;;;2.57;;
14907;SDS011;7545;52.092;7.006;2023-04-25T06:06:24;9.13;;;2.27;;
14907;SDS011;7545;52.092;7.006;2023-04-25T06:08:51;8.33;;;1.90;;
14907;SDS011;7545;52.092;7.006;2023-04-25T06:11:17;6.07;;;2.17;;
14907;SDS011;7545;52.092;7.006;2023-04-25T06:13:42;8.47;;;2.87;;
14907;SDS011;7545;52.092;7.006;2023-04-25T06:16:08;4.70;;;1.97;;
14907;SDS011;7545;52.092;7.006;2023-04-25T06:18:34;5.40;;;1.97;;
14907;SDS011;7545;52.092;7.006;2023-04-25T06:20:59;4.83;;;1.80;;
14907;SDS011;7545;52.092;7.006;2023-04-25T06:23:25;7.53;;;2.60;;
14907;SDS011;7545;52.092;7.006;2023-04-25T06:25:50;9.33;;;2.20;;
14907;SDS011;7545;52.092;7.006;2023-04-25T06:28:16;7.90;;;2.60;;
14907;SDS011;7545;52.092;7.006;2023-04-25T06:30:42;9.77;;;2.97;;
14907;SDS011;7545;52.092;7.006;2023-04-25T06:33:07;8.63;;;2.30;;
14907;SDS011;7545;52.092;7.006;2023-04-25T06:35:33;6.43;;;2.23;;
14907;SDS011;7545;52.092;7.006;2023-04-25T06:37:59;5.97;;;1.73;;
14907;SDS011;7545;52.092;7.006;2023-04-25T06:40:25;7.80;;;2.60;;
14907;SDS011;7545;52.092;7.006;2023-04-25T06:42:51;5.60;;;1.67;;
14907;SDS011;7545;52.092;7.006;2023-04-25T06:45:16;9.60;;;2.30;;
14907;SDS011;7545;52.092;7.006;2023-04-25T06:47:42;6.53;;;2.23;;
14907;SDS011;7545;52.092;7.006;2023-04-25T06:50:08;6.70;;;1.67;;
14907;SDS011;7545;52.092;7.006;2023-04-25T06:52:34;6.77;;;1.97;;
14907;SDS011;7545;52.092;7.006;2023-04-25T06:54:59;6.80;;;2.00;;
14907;SDS011;7545;52.092;7.006;2023-04-25T06:57:25;5.93;;;2.47;;
14907;SDS011;7545;52.092;7.006;2023-04-25T06:59:50;6.57;;;1.47;;
14907;SDS011;7545;52.092;7.006;2023-04-25T07:02:17;4.93;;;2.00;;
14907;SDS011;7545;52.092;7.006;2023-04-25T07:04:42;8.93;;;2.77;;
14907;SDS011;7545;52.092;7.006;2023-04-25T07:07:08;5.80;;;2.27;;
14907;SDS011;7545;52.092;7.006;2023-04-25T07:09:34;6.33;;;1.63;;
14907;SDS011;7545;52.092;7.006;2023-04-25T07:12:00;6.20;;;1.60;;
14907;SDS011;7545;52.092;7.006;2023-04-25T07:14:26;5.33;;;2.07;;
14907;SDS011;7545;52.092;7.006;2023-04-25T07:16:52;8.63;;;1.97;;
14907;SDS011;7545;52.092;7.006;2023-04-25T07:19:20;10.70;;;2.27;;
14907;SDS011;7545;52.092;7.006;2023-04-25T07:21:46;4.70;;;1.77;;
14907;SDS011;7545;52.092;7.006;2023-04-25T07:24:11;5.90;;;1.60;;
14907;SDS011;7545;52.092;7.006;2023-04-25T07:26:37;5.13;;;1.73;;
14907;SDS011;7545;52.092;7.006;2023-04-25T07:29:03;7.43;;;1.63;;
14907;SDS011;7545;52.092;7.006;2023-04-25T07:31:28;5.43;;;2.00;;
14907;SDS011;7545;52.092;7.006;2023-04-25T07:33:54;9.73;;;2.10;;
14907;SDS011;7545;52.092;7.006;2023-04-25T07:36:19;5.33;;;1.80;;
14907;SDS011;7545;52.092;7.006;2023-04-25T07:38:48;9.40;;;1.63;;
14907;SDS011;7545;52.092;7.006;2023-04-25T07:41:13;7.43;;;1.93;;
14907;SDS011;7545;52.092;7.006;2023-04-25T07:43:39;5.80;;;1.80;;
14907;SDS011;7545;52.092;7.006;2023-04-25T07:46:04;6.60;;;1.90;;
14907;SDS011;7545;52.092;7.006;2023-04-25T07:48:30;9.80;;;2.30;;
14907;SDS011;7545;52.092;7.006;2023-04-25T07:50:55;5.93;;;1.80;;
14907;SDS011;7545;52.092;7.006;2023-04-25T07:53:21;4.60;;;1.50;;
14907;SDS011;7545;52.092;7.006;2023-04-25T07:55:47;3.90;;;1.47;;
14907;SDS011;7545;52.092;7.006;2023-04-25T07:58:18;3.55;;;1.60;;
14907;SDS011;7545;52.092;7.006;2023-04-25T08:00:46;6.70;;;1.70;;
14907;SDS011;7545;52.092;7.006;2023-04-25T08:03:13;3.53;;;1.67;;
14907;SDS011;7545;52.092;7.006;2023-04-25T08:05:38;5.97;;;2.00;;
14907;SDS011;7545;52.092;7.006;2023-04-25T08:08:04;9.05;;;1.70;;
14907;SDS011;7545;52.092;7.006;2023-04-25T08:10:31;10.87;;;1.77;;
14907;SDS011;7545;52.092;7.006;2023-04-25T08:12:57;7.33;;;1.90;;
14907;SDS011;7545;52.092;7.006;2023-04-25T08:15:23;5.63;;;1.42;;
14907;SDS011;7545;52.092;7.006;2023-04-25T08:17:50;6.65;;;1.80;;
14907;SDS011;7545;52.092;7.006;2023-04-25T08:20:15;3.23;;;1.30;;
14907;SDS011;7545;52.092;7.006;2023-04-25T08:22:47;7.27;;;1.80;;
14907;SDS011;7545;52.092;7.006;2023-04-25T08:25:16;4.05;;;1.80;;
14907;SDS011;7545;52.092;7.006;2023-04-25T08:27:42;4.35;;;1.85;;
14907;SDS011;7545;52.092;7.006;2023-04-25T08:30:08;4.63;;;2.10;;
14907;SDS011;7545;52.092;7.006;2023-04-25T08:32:34;4.50;;;1.50;;
14907;SDS011;7545;52.092;7.006;2023-04-25T08:34:59;5.55;;;1.63;;
14907;SDS011;7545;52.092;7.006;2023-04-25T08:37:25;6.17;;;1.67;;
14907;SDS011;7545;52.092;7.006;2023-04-25T08:39:50;3.00;;;1.10;;
14907;SDS011;7545;52.092;7.006;2023-04-25T08:42:19;8.07;;;1.70;;
14907;SDS011;7545;52.092;7.006;2023-04-25T08:44:48;4.43;;;1.35;;
14907;SDS011;7545;52.092;7.006;2023-04-25T08:47:14;4.28;;;1.00;;
14907;SDS011;7545;52.092;7.006;2023-04-25T08:49:42;4.32;;;1.17;;
14907;SDS011;7545;52.092;7.006;2023-04-25T08:52:11;3.85;;;0.85;;
14907;SDS011;7545;52.092;7.006;2023-04-25T08:54:40;4.38;;;0.80;;
14907;SDS011;7545;52.092;7.006;2023-04-25T08:57:09;3.70;;;1.33;;
14907;SDS011;7545;52.092;7.006;2023-04-25T08:59:35;5.40;;;1.30;;
14907;SDS011;7545;52.092;7.006;2023-04-25T09:02:02;4.88;;;0.85;;
14907;SDS011;7545;52.092;7.006;2023-04-25T09:04:30;2.75;;;0.95;;
14907;SDS011;7545;52.092;7.006;2023-04-25T09:06:56;6.40;;;1.23;;
14907;SDS011;7545;52.092;7.006;2023-04-25T09:09:23;5.60;;;1.27;;
14907;SDS011;7545;52.092;7.006;2023-04-25T09:11:49;6.80;;;1.13;;
14907;SDS011;7545;52.092;7.006;2023-04-25T09:14:16;5.70;;;1.25;;
14907;SDS011;7545;52.092;7.006;2023-04-25T09:19:24;3.83;;;1.33;;
14907;SDS011;7545;52.092;7.006;2023-04-25T09:21:55;3.85;;;0.95;;
14907;SDS011;7545;52.092;7.006;2023-04-25T09:27:03;4.40;;;1.25;;
14907;SDS011;7545;52.092;7.006;2023-04-25T09:29:33;3.42;;;1.35;;
14907;SDS011;7545;52.092;7.006;2023-04-25T09:32:10;2.75;;;1.30;;
14907;SDS011;7545;52.092;7.006;2023-04-25T09:34:49;3.58;;;1.10;;
14907;SDS011;7545;52.092;7.006;2023-04-25T09:37:17;4.38;;;1.20;;
14907;SDS011;7545;52.092;7.006;2023-04-25T09:39:45;3.30;;;1.20;;
14907;SDS011;7545;52.092;7.006;2023-04-25T09:42:12;4.00;;;1.10;;
14907;SDS011;7545;52.092;7.006;2023-04-25T09:44:43;2.95;;;1.00;;
14907;SDS011;7545;52.092;7.006;2023-04-25T09:47:10;4.10;;;0.80;;
14907;SDS011;7545;52.092;7.006;2023-04-25T09:49:41;2.20;;;0.93;;
14907;SDS011;7545;52.092;7.006;2023-04-25T09:52:08;3.05;;;1.00;;
14907;SDS011;7545;52.092;7.006;2023-04-25T09:54:37;5.47;;;1.50;;
14907;SDS011;7545;52.092;7.006;2023-04-25T09:57:07;4.75;;;1.10;;
14907;SDS011;7545;52.092;7.006;2023-04-25T09:59:46;2.55;;;1.15;;
14907;SDS011;7545;52.092;7.006;2023-04-25T10:02:14;6.25;;;1.17;;
14907;SDS011;7545;52.092;7.006;2023-04-25T10:04:43;5.05;;;0.90;;
14907;SDS011;7545;52.092;7.006;2023-04-25T10:07:12;2.55;;;1.30;;
14907;SDS011;7545;52.092;7.006;2023-04-25T10:09:38;3.92;;;0.82;;
14907;SDS011;7545;52.092;7.006;2023-04-25T10:12:05;6.47;;;1.35;;
14907;SDS011;7545;52.092;7.006;2023-04-25T10:14:32;3.42;;;1.02;;
14907;SDS011;7545;52.092;7.006;2023-04-25T10:16:59;4.70;;;1.23;;
14907;SDS011;7545;52.092;7.006;2023-04-25T10:19:25;5.45;;;1.30;;
14907;SDS011;7545;52.092;7.006;2023-04-25T10:21:52;2.90;;;0.75;;
14907;SDS011;7545;52.092;7.006;2023-04-25T10:24:23;3.90;;;0.98;;
14907;SDS011;7545;52.092;7.006;2023-04-25T10:26:50;3.83;;;1.17;;
14907;SDS011;7545;52.092;7.006;2023-04-25T10:29:23;3.17;;;0.93;;
14907;SDS011;7545;52.092;7.006;2023-04-25T10:31:50;4.80;;;1.30;;
14907;SDS011;7545;52.092;7.006;2023-04-25T10:34:16;3.05;;;0.60;;
14907;SDS011;7545;52.092;7.006;2023-04-25T10:36:42;5.88;;;1.30;;
14907;SDS011;7545;52.092;7.006;2023-04-25T10:39:20;3.90;;;0.88;;
14907;SDS011;7545;52.092;7.006;2023-04-25T10:41:51;2.28;;;0.70;;
14907;SDS011;7545;52.092;7.006;2023-04-25T10:44:20;3.25;;;0.68;;
14907;SDS011;7545;52.092;7.006;2023-04-25T10:46:46;3.67;;;1.08;;
14907;SDS011;7545;52.092;7.006;2023-04-25T10:49:28;2.95;;;0.80;;
14907;SDS011;7545;52.092;7.006;2023-04-25T10:54:47;5.15;;;1.00;;
14907;SDS011;7545;52.092;7.006;2023-04-25T11:00:06;4.60;;;1.30;;
14907;SDS011;7545;52.092;7.006;2023-04-25T11:02:40;2.25;;;0.43;;
14907;SDS011;7545;52.092;7.006;2023-04-25T11:05:23;2.55;;;0.73;;
14907;SDS011;7545;52.092;7.006;2023-04-25T11:07:53;1.40;;;0.73;;
14907;SDS011;7545;52.092;7.006;2023-04-25T11:10:24;3.08;;;0.90;;
14907;SDS011;7545;52.092;7.006;2023-04-25T11:12:55;2.25;;;0.90;;
14907;SDS011;7545;52.092;7.006;2023-04-25T11:15:20;2.20;;;0.98;;
14907;SDS011;7545;52.092;7.006;2023-04-25T11:17:46;4.47;;;1.05;;
14907;SDS011;7545;52.092;7.006;2023-04-25T11:20:14;5.25;;;1.08;;
14907;SDS011;7545;52.092;7.006;2023-04-25T11:22:40;3.72;;;0.98;;
14907;SDS011;7545;52.092;7.006;2023-04-25T11:25:10;3.40;;;0.73;;
14907;SDS011;7545;52.092;7.006;2023-04-25T11:27:37;2.70;;;0.90;;
14907;SDS011;7545;52.092;7.006;2023-04-25T11:30:21;3.67;;;1.23;;
14907;SDS011;7545;52.092;7.006;2023-04-25T11:32:47;4.20;;;0.88;;
14907;SDS011;7545;52.092;7.006;2023-04-25T11:35:13;1.30;;;0.82;;
14907;SDS011;7545;52.092;7.006;2023-04-25T11:37:39;2.35;;;1.10;;
14907;SDS011;7545;52.092;7.006;2023-04-25T11:40:05;3.58;;;1.45;;
14907;SDS011;7545;52.092;7.006;2023-04-25T11:42:33;1.70;;;0.95;;
14907;SDS011;7545;52.092;7.006;2023-04-25T11:44:59;6.07;;;1.13;;
14907;SDS011;7545;52.092;7.006;2023-04-25T11:47:29;3.78;;;0.93;;
14907;SDS011;7545;52.092;7.006;2023-04-25T11:49:57;3.13;;;0.77;;
14907;SDS011;7545;52.092;7.006;2023-04-25T11:52:23;3.70;;;0.73;;
14907;SDS011;7545;52.092;7.006;2023-04-25T11:54:49;3.25;;;0.80;;
14907;SDS011;7545;52.092;7.006;2023-04-25T11:57:14;2.35;;;0.80;;
14907;SDS011;7545;52.092;7.006;2023-04-25T11:59:44;3.17;;;0.90;;
14907;SDS011;7545;52.092;7.006;2023-04-25T12:02:23;2.33;;;0.70;;
14907;SDS011;7545;52.092;7.006;2023-04-25T12:04:50;1.08;;;0.73;;
14907;SDS011;7545;52.092;7.006;2023-04-25T12:07:16;0.85;;;0.50;;
14907;SDS011;7545;52.092;7.006;2023-04-25T12:09:41;1.08;;;0.52;;
14907;SDS011;7545;52.092;7.006;2023-04-25T12:12:09;2.75;;;0.70;;
14907;SDS011;7545;52.092;7.006;2023-04-25T12:14:35;1.35;;;0.50;;
14907;SDS011;7545;52.092;7.006;2023-04-25T12:17:01;2.25;;;0.80;;
14907;SDS011;7545;52.092;7.006;2023-04-25T12:19:33;2.70;;;0.63;;
14907;SDS011;7545;52.092;7.006;2023-04-25T12:22:00;2.00;;;0.47;;
14907;SDS011;7545;52.092;7.006;2023-04-25T12:24:28;2.15;;;1.33;;
14907;SDS011;7545;52.092;7.006;2023-04-25T12:26:58;1.98;;;0.95;;
14907;SDS011;7545;52.092;7.006;2023-04-25T12:29:26;3.33;;;0.90;;
14907;SDS011;7545;52.092;7.006;2023-04-25T12:31:53;3.67;;;0.75;;
14907;SDS011;7545;52.092;7.006;2023-04-25T12:34:19;2.97;;;0.82;;
14907;SDS011;7545;52.092;7.006;2023-04-25T12:36:49;1.08;;;0.70;;
14907;SDS011;7545;52.092;7.006;2023-04-25T12:39:20;2.17;;;0.90;;
14907;SDS011;7545;52.092;7.006;2023-04-25T12:41:49;3.45;;;1.25;;
14907;SDS011;7545;52.092;7.006;2023-04-25T12:44:17;4.80;;;1.00;;
14907;SDS011;7545;52.092;7.006;2023-04-25T12:46:42;4.80;;;1.10;;
14907;SDS011;7545;52.092;7.006;2023-04-25T12:49:08;4.30;;;0.80;;
14907;SDS011;7545;52.092;7.006;2023-04-25T12:51:34;5.65;;;1.20;;
14907;SDS011;7545;52.092;7.006;2023-04-25T12:54:01;4.57;;;1.02;;
14907;SDS011;7545;52.092;7.006;2023-04-25T12:56:29;1.42;;;0.70;;
14907;SDS011;7545;52.092;7.006;2023-04-25T12:58:55;2.70;;;0.70;;
14907;SDS011;7545;52.092;7.006;2023-04-25T13:01:21;4.85;;;1.20;;
14907;SDS011;7545;52.092;7.006;2023-04-25T13:03:47;4.07;;;1.08;;
14907;SDS011;7545;52.092;7.006;2023-04-25T13:06:13;7.10;;;1.45;;
14907;SDS011;7545;52.092;7.006;2023-04-25T13:08:40;2.15;;;0.80;;
14907;SDS011;7545;52.092;7.006;2023-04-25T13:11:06;0.77;;;0.57;;
14907;SDS011;7545;52.092;7.006;2023-04-25T13:13:32;2.83;;;0.70;;
14907;SDS011;7545;52.092;7.006;2023-04-25T13:15:59;3.17;;;0.90;;
14907;SDS011;7545;52.092;7.006;2023-04-25T13:18:32;5.72;;;0.88;;
14907;SDS011;7545;52.092;7.006;2023-04-25T13:20:58;0.70;;;0.52;;
14907;SDS011;7545;52.092;7.006;2023-04-25T13:23:25;2.30;;;0.80;;
14907;SDS011;7545;52.092;7.006;2023-04-25T13:25:51;1.98;;;0.75;;
14907;SDS011;7545;52.092;7.006;2023-04-25T13:28:17;2.47;;;0.75;;
14907;SDS011;7545;52.092;7.006;2023-04-25T13:30:43;2.03;;;0.80;;
14907;SDS011;7545;52.092;7.006;2023-04-25T13:33:09;1.73;;;1.00;;
14907;SDS011;7545;52.092;7.006;2023-04-25T13:35:35;3.58;;;1.08;;
14907;SDS011;7545;52.092;7.006;2023-04-25T13:38:02;1.23;;;0.80;;
14907;SDS011;7545;52.092;7.006;2023-04-25T13:40:28;2.42;;;0.80;;
14907;SDS011;7545;52.092;7.006;2023-04-25T13:42:54;6.40;;;1.00;;
14907;SDS011;7545;52.092;7.006;2023-04-25T13:45:20;3.40;;;0.98;;
14907;SDS011;7545;52.092;7.006;2023-04-25T13:47:46;2.88;;;0.98;;
14907;SDS011;7545;52.092;7.006;2023-04-25T13:50:12;2.00;;;0.73;;
14907;SDS011;7545;52.092;7.006;2023-04-25T13:52:38;3.22;;;1.65;;
14907;SDS011;7545;52.092;7.006;2023-04-25T13:55:04;3.30;;;1.15;;
14907;SDS011;7545;52.092;7.006;2023-04-25T13:57:32;1.73;;;0.95;;
14907;SDS011;7545;52.092;7.006;2023-04-25T13:59:58;2.35;;;0.60;;
14907;SDS011;7545;52.092;7.006;2023-04-25T14:02:24;2.70;;;0.70;;
14907;SDS011;7545;52.092;7.006;2023-04-25T14:04:50;1.35;;;0.70;;
14907;SDS011;7545;52.092;7.006;2023-04-25T14:07:16;3.45;;;0.70;;
14907;SDS011;7545;52.092;7.006;2023-04-25T14:09:43;1.10;;;0.50;;
14907;SDS011;7545;52.092;7.006;2023-04-25T14:12:09;1.80;;;0.75;;
14907;SDS011;7545;52.092;7.006;2023-04-25T14:14:35;1.00;;;0.65;;
14907;SDS011;7545;52.092;7.006;2023-04-25T14:17:00;2.75;;;0.60;;
14907;SDS011;7545;52.092;7.006;2023-04-25T14:19:26;1.95;;;0.60;;
14907;SDS011;7545;52.092;7.006;2023-04-25T14:21:56;2.13;;;0.85;;
14907;SDS011;7545;52.092;7.006;2023-04-25T14:24:22;2.58;;;0.75;;
14907;SDS011;7545;52.092;7.006;2023-04-25T14:26:48;3.83;;;1.50;;
14907;SDS011;7545;52.092;7.006;2023-04-25T14:29:13;2.47;;;0.70;;
14907;SDS011;7545;52.092;7.006;2023-04-25T14:31:39;2.30;;;1.25;;
14907;SDS011;7545;52.092;7.006;2023-04-25T14:34:05;1.30;;;0.77;;
14907;SDS011;7545;52.092;7.006;2023-04-25T14:36:32;2.05;;;0.75;;
14907;SDS011;7545;52.092;7.006;2023-04-25T14:38:58;0.98;;;0.73;;
14907;SDS011;7545;52.092;7.006;2023-04-25T14:41:24;2.92;;;0.68;;
14907;SDS011;7545;52.092;7.006;2023-04-25T14:43:51;4.95;;;0.82;;
14907;SDS011;7545;52.092;7.006;2023-04-25T14:46:21;2.45;;;0.70;;
14907;SDS011;7545;52.092;7.006;2023-04-25T14:48:48;4.13;;;1.27;;
14907;SDS011;7545;52.092;7.006;2023-04-25T14:51:17;2.58;;;0.88;;
14907;SDS011;7545;52.092;7.006;2023-04-25T14:53:42;1.48;;;0.80;;
14907;SDS011;7545;52.092;7.006;2023-04-25T14:56:08;1.55;;;0.57;;
14907;SDS011;7545;52.092;7.006;2023-04-25T14:58:34;3.28;;;1.77;;
14907;SDS011;7545;52.092;7.006;2023-04-25T15:01:00;4.70;;;0.70;;
14907;SDS011;7545;52.092;7.006;2023-04-25T15:03:26;2.60;;;0.90;;
14907;SDS011;7545;52.092;7.006;2023-04-25T15:05:52;1.77;;;0.60;;
14907;SDS011;7545;52.092;7.006;2023-04-25T15:08:20;1.48;;;0.60;;